Flight Track Log - Related Links

Times and Time Zones

All times are in EDT time to prevent confusion due to time zone crossing. See the N81ER flight status page for this flight to view local times or setup timezone preferences in your user account.

Time Position Orientation Groundspeed Altitude Reporting Facility
EDT Latitude Longitude Course Direction KTS MPH feet Rate Location/Type
Wed 04:31:35 PM 35.8606 -78.8033 260° West 170 196 1,400  Level Washington Center
Wed 04:32:07 PM 35.8380 -78.8290 225° Southwest 219 252 3,500 4,468 Climbing FlightAware
Wed 04:32:22 PM 35.8260 -78.8450 227° Southwest 215 247 4,900 4,800 Climbing FlightAware
Wed 04:32:32 PM 35.8240 -78.8540 255° West 221 254 5,500 3,188 Climbing FlightAware
Wed 04:32:54 PM 35.8294 -78.8764 242° Southwest 235 270 6,600 4,000 Climbing Washington Center
Wed 04:33:02 PM 35.8430 -78.8880 305° West 243 280 7,500 1,895 Climbing FlightAware
Wed 04:33:32 PM 35.8640 -78.9140 315° West 244 281 7,800 638 Climbing FlightAware
Wed 04:33:49 PM 35.8778 -78.9372 314° West 270 311 8,000 1,521 Climbing Washington Center
Wed 04:34:43 PM 35.9242 -78.9906 317° Northwest 237 273 9,600 1,053 Climbing Washington Center
Wed 04:35:43 PM 35.9706 -79.0517 313° West 245 282 10,000 316 Climbing Washington Center
Wed 04:35:59 PM 35.9844 -79.0728 309° West 255 293 10,000  Level Washington Center
Wed 04:36:00 PM 35.8428 -79.1337 260° West  Level FlightAware
Wed 04:36:42 PM 36.0228 -79.1208 315° West 292 336 10,000  Level Washington Center
Wed 04:37:43 PM 36.0731 -79.1847 314° West 300 345 10,000  Level Washington Center
Wed 04:38:41 PM 36.1311 -79.2619 313° West 300 345 10,000  Level Washington Center
Wed 04:39:42 PM 36.1792 -79.3283 312° West 295 339 10,000  Level Washington Center
Wed 04:40:42 PM 36.2392 -79.4086 313° West 290 334 10,000  Level Washington Center
Wed 04:41:42 PM 36.2892 -79.4728 314° West 290 334 10,000  Level Washington Center
Wed 04:42:43 PM 36.3472 -79.5531 312° West 290 334 10,000  Level Washington Center
Wed 04:43:41 PM 36.3972 -79.6175 343° North 290 334 10,000  Level Washington Center
Wed 04:44:00 PM 36.4132 -79.5948 343° North  Level FlightAware
Wed 04:44:42 PM 36.4511 -79.6875 314° West 290 334 10,000  Level Washington Center
Wed 04:45:41 PM 36.5050 -79.7600 313° West 285 328 10,000  Level Washington Center
Wed 04:46:42 PM 36.5647 -79.8408 313° West 285 328 10,000  Level Washington Center
Wed 04:47:42 PM 36.6164 -79.9136 312° West 285 328 10,000  Level Washington Center
Wed 04:48:43 PM 36.6700 -79.9839 314° West 285 328 10,000  Level Washington Center
Wed 04:50:42 PM 36.7911 -80.0997 323° Northwest 280 322 10,000 -667 Level Washington Center
Wed 04:51:43 PM 36.8608 -80.1272 342° North 274 315 8,000 -1,736 Descending Washington Center
Wed 04:52:43 PM 36.9244 -80.1542 341° North 261 300 6,500 -1,017 Descending Washington Center
Wed 04:53:41 PM 36.9903 -80.1817 342° North 250 288 6,000 -252 Descending Washington Center
Wed 04:54:42 PM 37.0622 -80.2092 343° North 245 282 6,000 -347 Level Washington Center
Wed 04:55:42 PM 37.1281 -80.2367 342° North 245 282 5,300 -397 Descending Washington Center
Wed 04:56:43 PM 37.1939 -80.2589 345° North 245 282 5,200 -98 Descending Washington Center

Login

Don't have an account? Register now (free) for customized features, flight alerts, and more!